sensor_id;sensor_type;location;lat;lon;timestamp;P1;durP1;ratioP1;P2;durP2;ratioP2
46198;SDS011;31928;52.104;10.030;2022-10-31T00:00:46;5.82;;;3.75;;
46198;SDS011;31928;52.104;10.030;2022-10-31T00:03:13;4.07;;;3.67;;
46198;SDS011;31928;52.104;10.030;2022-10-31T00:05:40;5.53;;;4.15;;
46198;SDS011;31928;52.104;10.030;2022-10-31T00:08:11;4.45;;;3.47;;
46198;SDS011;31928;52.104;10.030;2022-10-31T00:13:08;4.10;;;3.80;;
46198;SDS011;31928;52.104;10.030;2022-10-31T00:15:39;3.92;;;3.63;;
46198;SDS011;31928;52.104;10.030;2022-10-31T00:18:07;7.43;;;3.70;;
46198;SDS011;31928;52.104;10.030;2022-10-31T00:20:34;4.07;;;3.47;;
46198;SDS011;31928;52.104;10.030;2022-10-31T00:23:02;4.97;;;4.00;;
46198;SDS011;31928;52.104;10.030;2022-10-31T00:25:32;3.50;;;3.20;;
46198;SDS011;31928;52.104;10.030;2022-10-31T00:28:01;3.50;;;3.20;;
46198;SDS011;31928;52.104;10.030;2022-10-31T00:30:29;3.97;;;3.05;;
46198;SDS011;31928;52.104;10.030;2022-10-31T00:32:56;4.22;;;3.85;;
46198;SDS011;31928;52.104;10.030;2022-10-31T00:35:23;4.43;;;3.78;;
46198;SDS011;31928;52.104;10.030;2022-10-31T00:37:50;4.38;;;3.95;;
46198;SDS011;31928;52.104;10.030;2022-10-31T00:40:16;4.20;;;3.67;;
46198;SDS011;31928;52.104;10.030;2022-10-31T00:45:09;6.15;;;3.83;;
46198;SDS011;31928;52.104;10.030;2022-10-31T00:47:37;4.13;;;3.70;;
46198;SDS011;31928;52.104;10.030;2022-10-31T00:50:04;4.82;;;3.80;;
46198;SDS011;31928;52.104;10.030;2022-10-31T00:52:31;4.65;;;3.92;;
46198;SDS011;31928;52.104;10.030;2022-10-31T00:57:24;4.50;;;3.72;;
46198;SDS011;31928;52.104;10.030;2022-10-31T01:02:18;4.47;;;4.07;;
46198;SDS011;31928;52.104;10.030;2022-10-31T01:04:45;5.45;;;3.75;;
46198;SDS011;31928;52.104;10.030;2022-10-31T01:09:40;3.50;;;3.20;;
46198;SDS011;31928;52.104;10.030;2022-10-31T01:12:06;3.55;;;3.25;;
46198;SDS011;31928;52.104;10.030;2022-10-31T01:14:34;5.65;;;4.78;;
46198;SDS011;31928;52.104;10.030;2022-10-31T01:17:00;3.60;;;3.30;;
46198;SDS011;31928;52.104;10.030;2022-10-31T01:19:27;4.60;;;4.20;;
46198;SDS011;31928;52.104;10.030;2022-10-31T01:24:20;3.53;;;3.23;;
46198;SDS011;31928;52.104;10.030;2022-10-31T01:29:13;4.18;;;3.88;;
46198;SDS011;31928;52.104;10.030;2022-10-31T01:34:06;3.40;;;3.10;;
46198;SDS011;31928;52.104;10.030;2022-10-31T01:36:34;3.85;;;3.45;;
46198;SDS011;31928;52.104;10.030;2022-10-31T01:39:03;4.45;;;3.83;;
46198;SDS011;31928;52.104;10.030;2022-10-31T01:41:35;5.60;;;3.88;;
46198;SDS011;31928;52.104;10.030;2022-10-31T01:51:51;4.47;;;3.78;;
46198;SDS011;31928;52.104;10.030;2022-10-31T01:54:26;4.07;;;3.67;;
46198;SDS011;31928;52.104;10.030;2022-10-31T01:56:58;5.13;;;4.20;;
46198;SDS011;31928;52.104;10.030;2022-10-31T01:59:27;6.05;;;5.07;;
46198;SDS011;31928;52.104;10.030;2022-10-31T02:01:58;5.50;;;4.35;;
46198;SDS011;31928;52.104;10.030;2022-10-31T02:04:24;4.07;;;3.65;;
46198;SDS011;31928;52.104;10.030;2022-10-31T02:07:02;5.47;;;4.00;;
46198;SDS011;31928;52.104;10.030;2022-10-31T02:09:33;4.35;;;3.92;;
46198;SDS011;31928;52.104;10.030;2022-10-31T02:12:02;5.07;;;4.55;;
46198;SDS011;31928;52.104;10.030;2022-10-31T02:14:30;4.10;;;3.70;;
46198;SDS011;31928;52.104;10.030;2022-10-31T02:16:57;3.50;;;3.20;;
46198;SDS011;31928;52.104;10.030;2022-10-31T02:19:26;5.35;;;4.85;;
46198;SDS011;31928;52.104;10.030;2022-10-31T02:22:11;4.85;;;4.35;;
46198;SDS011;31928;52.104;10.030;2022-10-31T02:24:52;4.50;;;3.67;;
46198;SDS011;31928;52.104;10.030;2022-10-31T02:30:24;8.15;;;4.60;;
46198;SDS011;31928;52.104;10.030;2022-10-31T02:38:34;4.47;;;4.07;;
46198;SDS011;31928;52.104;10.030;2022-10-31T02:46:16;6.00;;;4.45;;
46198;SDS011;31928;52.104;10.030;2022-10-31T02:48:51;4.18;;;3.80;;
46198;SDS011;31928;52.104;10.030;2022-10-31T02:51:21;5.15;;;4.65;;
46198;SDS011;31928;52.104;10.030;2022-10-31T02:53:48;7.65;;;4.72;;
46198;SDS011;31928;52.104;10.030;2022-10-31T03:02:18;5.05;;;4.00;;
46198;SDS011;31928;52.104;10.030;2022-10-31T03:04:40;6.68;;;4.65;;
46198;SDS011;31928;52.104;10.030;2022-10-31T03:18:39;4.95;;;3.97;;
46198;SDS011;31928;52.104;10.030;2022-10-31T03:21:10;5.55;;;4.80;;
46198;SDS011;31928;52.104;10.030;2022-10-31T03:23:43;6.28;;;4.78;;
46198;SDS011;31928;52.104;10.030;2022-10-31T03:26:12;5.97;;;4.57;;
46198;SDS011;31928;52.104;10.030;2022-10-31T03:28:52;5.88;;;5.22;;
46198;SDS011;31928;52.104;10.030;2022-10-31T03:31:20;4.90;;;4.50;;
46198;SDS011;31928;52.104;10.030;2022-10-31T03:33:52;5.68;;;5.18;;
46198;SDS011;31928;52.104;10.030;2022-10-31T03:36:22;5.13;;;4.63;;
46198;SDS011;31928;52.104;10.030;2022-10-31T03:38:49;6.72;;;5.57;;
46198;SDS011;31928;52.104;10.030;2022-10-31T03:41:18;6.80;;;5.20;;
46198;SDS011;31928;52.104;10.030;2022-10-31T03:43:50;5.63;;;5.05;;
46198;SDS011;31928;52.104;10.030;2022-10-31T03:46:21;4.95;;;4.30;;
46198;SDS011;31928;52.104;10.030;2022-10-31T03:48:49;6.65;;;5.10;;
46198;SDS011;31928;52.104;10.030;2022-10-31T03:51:26;6.60;;;4.57;;
46198;SDS011;31928;52.104;10.030;2022-10-31T03:53:56;7.13;;;5.15;;
46198;SDS011;31928;52.104;10.030;2022-10-31T03:56:41;6.88;;;4.97;;
46198;SDS011;31928;52.104;10.030;2022-10-31T03:59:14;5.18;;;4.32;;
46198;SDS011;31928;52.104;10.030;2022-10-31T04:01:48;7.82;;;5.13;;
46198;SDS011;31928;52.104;10.030;2022-10-31T04:04:19;5.65;;;5.10;;
46198;SDS011;31928;52.104;10.030;2022-10-31T04:06:46;5.75;;;5.25;;
46198;SDS011;31928;52.104;10.030;2022-10-31T04:09:15;4.90;;;4.43;;
46198;SDS011;31928;52.104;10.030;2022-10-31T04:11:45;6.13;;;5.50;;
46198;SDS011;31928;52.104;10.030;2022-10-31T04:14:15;4.88;;;4.30;;
46198;SDS011;31928;52.104;10.030;2022-10-31T04:21:39;4.65;;;3.90;;
46198;SDS011;31928;52.104;10.030;2022-10-31T04:24:06;4.85;;;4.35;;
46198;SDS011;31928;52.104;10.030;2022-10-31T04:26:33;5.10;;;4.70;;
46198;SDS011;31928;52.104;10.030;2022-10-31T04:31:25;4.50;;;4.10;;
46198;SDS011;31928;52.104;10.030;2022-10-31T04:33:52;6.50;;;5.88;;
46198;SDS011;31928;52.104;10.030;2022-10-31T04:38:45;5.45;;;4.95;;
46198;SDS011;31928;52.104;10.030;2022-10-31T04:43:38;5.32;;;4.82;;
46198;SDS011;31928;52.104;10.030;2022-10-31T04:48:31;5.15;;;4.00;;
46198;SDS011;31928;52.104;10.030;2022-10-31T04:50:58;5.82;;;4.78;;
46198;SDS011;31928;52.104;10.030;2022-10-31T04:53:26;5.25;;;4.65;;
46198;SDS011;31928;52.104;10.030;2022-10-31T04:55:53;6.25;;;4.95;;
46198;SDS011;31928;52.104;10.030;2022-10-31T04:58:19;6.88;;;6.28;;
46198;SDS011;31928;52.104;10.030;2022-10-31T05:00:46;6.65;;;5.60;;
46198;SDS011;31928;52.104;10.030;2022-10-31T05:05:39;5.80;;;5.20;;
46198;SDS011;31928;52.104;10.030;2022-10-31T05:08:06;6.60;;;4.90;;
46198;SDS011;31928;52.104;10.030;2022-10-31T05:10:32;12.30;;;8.07;;
46198;SDS011;31928;52.104;10.030;2022-10-31T05:15:28;6.40;;;5.15;;
46198;SDS011;31928;52.104;10.030;2022-10-31T05:17:55;7.70;;;5.95;;
46198;SDS011;31928;52.104;10.030;2022-10-31T05:20:24;6.68;;;6.00;;
46198;SDS011;31928;52.104;10.030;2022-10-31T05:22:54;6.53;;;5.47;;
46198;SDS011;31928;52.104;10.030;2022-10-31T05:25:23;7.55;;;6.68;;
46198;SDS011;31928;52.104;10.030;2022-10-31T05:27:52;6.53;;;5.93;;
46198;SDS011;31928;52.104;10.030;2022-10-31T05:30:21;7.30;;;5.45;;
46198;SDS011;31928;52.104;10.030;2022-10-31T05:32:49;5.97;;;5.28;;
46198;SDS011;31928;52.104;10.030;2022-10-31T05:35:19;6.07;;;5.00;;
46198;SDS011;31928;52.104;10.030;2022-10-31T05:37:47;6.18;;;5.57;;
46198;SDS011;31928;52.104;10.030;2022-10-31T05:42:42;5.70;;;5.20;;
46198;SDS011;31928;52.104;10.030;2022-10-31T05:45:10;6.25;;;5.65;;
46198;SDS011;31928;52.104;10.030;2022-10-31T05:47:38;6.68;;;6.07;;
46198;SDS011;31928;52.104;10.030;2022-10-31T05:50:05;5.40;;;4.95;;
46198;SDS011;31928;52.104;10.030;2022-10-31T05:52:33;6.30;;;5.65;;
46198;SDS011;31928;52.104;10.030;2022-10-31T05:55:00;7.40;;;6.18;;
46198;SDS011;31928;52.104;10.030;2022-10-31T05:59:54;5.47;;;4.65;;
46198;SDS011;31928;52.104;10.030;2022-10-31T06:02:21;5.88;;;5.38;;
46198;SDS011;31928;52.104;10.030;2022-10-31T06:04:47;6.88;;;6.15;;
46198;SDS011;31928;52.104;10.030;2022-10-31T06:09:40;5.88;;;4.97;;
46198;SDS011;31928;52.104;10.030;2022-10-31T06:14:33;7.18;;;6.47;;
46198;SDS011;31928;52.104;10.030;2022-10-31T06:17:00;8.52;;;5.82;;
46198;SDS011;31928;52.104;10.030;2022-10-31T06:21:53;6.22;;;5.30;;
46198;SDS011;31928;52.104;10.030;2022-10-31T06:24:19;5.85;;;5.25;;
46198;SDS011;31928;52.104;10.030;2022-10-31T06:26:46;6.93;;;6.22;;
46198;SDS011;31928;52.104;10.030;2022-10-31T06:29:12;8.18;;;7.22;;
46198;SDS011;31928;52.104;10.030;2022-10-31T06:31:38;7.35;;;5.68;;
46198;SDS011;31928;52.104;10.030;2022-10-31T06:34:05;9.82;;;6.32;;
46198;SDS011;31928;52.104;10.030;2022-10-31T06:36:31;7.95;;;6.80;;
46198;SDS011;31928;52.104;10.030;2022-10-31T06:38:58;7.18;;;5.85;;
46198;SDS011;31928;52.104;10.030;2022-10-31T06:41:24;8.82;;;7.07;;
46198;SDS011;31928;52.104;10.030;2022-10-31T06:43:51;6.20;;;5.60;;
46198;SDS011;31928;52.104;10.030;2022-10-31T06:46:17;8.43;;;6.72;;
46198;SDS011;31928;52.104;10.030;2022-10-31T06:48:44;9.95;;;5.13;;
46198;SDS011;31928;52.104;10.030;2022-10-31T06:51:10;6.50;;;4.25;;
46198;SDS011;31928;52.104;10.030;2022-10-31T06:53:37;5.18;;;4.68;;
46198;SDS011;31928;52.104;10.030;2022-10-31T06:56:03;9.50;;;6.05;;
46198;SDS011;31928;52.104;10.030;2022-10-31T06:58:30;7.03;;;4.80;;
46198;SDS011;31928;52.104;10.030;2022-10-31T07:00:58;7.75;;;5.60;;
46198;SDS011;31928;52.104;10.030;2022-10-31T07:03:28;10.25;;;5.00;;
46198;SDS011;31928;52.104;10.030;2022-10-31T07:05:55;8.93;;;5.25;;
46198;SDS011;31928;52.104;10.030;2022-10-31T07:08:23;9.63;;;5.70;;
46198;SDS011;31928;52.104;10.030;2022-10-31T07:10:51;8.27;;;6.28;;
46198;SDS011;31928;52.104;10.030;2022-10-31T07:13:19;8.05;;;5.82;;
46198;SDS011;31928;52.104;10.030;2022-10-31T07:15:54;6.05;;;5.43;;
46198;SDS011;31928;52.104;10.030;2022-10-31T07:18:25;7.72;;;5.35;;
46198;SDS011;31928;52.104;10.030;2022-10-31T07:20:52;6.47;;;5.43;;
46198;SDS011;31928;52.104;10.030;2022-10-31T07:23:19;6.63;;;5.82;;
46198;SDS011;31928;52.104;10.030;2022-10-31T07:25:45;8.00;;;5.90;;
46198;SDS011;31928;52.104;10.030;2022-10-31T07:30:38;5.30;;;4.80;;
46198;SDS011;31928;52.104;10.030;2022-10-31T07:33:05;6.00;;;5.40;;
46198;SDS011;31928;52.104;10.030;2022-10-31T07:35:32;10.88;;;5.90;;
46198;SDS011;31928;52.104;10.030;2022-10-31T07:38:07;8.18;;;5.10;;
46198;SDS011;31928;52.104;10.030;2022-10-31T07:40:35;7.30;;;4.88;;
46198;SDS011;31928;52.104;10.030;2022-10-31T07:45:28;6.57;;;5.47;;
46198;SDS011;31928;52.104;10.030;2022-10-31T07:47:54;9.55;;;5.90;;
46198;SDS011;31928;52.104;10.030;2022-10-31T07:50:22;9.45;;;6.57;;
46198;SDS011;31928;52.104;10.030;2022-10-31T07:55:50;6.18;;;5.22;;
46198;SDS011;31928;52.104;10.030;2022-10-31T07:58:17;11.82;;;6.95;;
46198;SDS011;31928;52.104;10.030;2022-10-31T08:00:44;7.05;;;6.30;;
46198;SDS011;31928;52.104;10.030;2022-10-31T08:03:13;7.82;;;6.63;;
46198;SDS011;31928;52.104;10.030;2022-10-31T08:05:41;7.05;;;5.40;;
46198;SDS011;31928;52.104;10.030;2022-10-31T08:08:08;9.60;;;6.60;;
46198;SDS011;31928;52.104;10.030;2022-10-31T08:10:35;6.47;;;5.30;;
46198;SDS011;31928;52.104;10.030;2022-10-31T08:13:03;6.60;;;5.53;;
46198;SDS011;31928;52.104;10.030;2022-10-31T08:15:31;5.70;;;5.30;;
46198;SDS011;31928;52.104;10.030;2022-10-31T08:18:00;5.57;;;4.80;;
46198;SDS011;31928;52.104;10.030;2022-10-31T08:20:28;7.22;;;5.15;;
46198;SDS011;31928;52.104;10.030;2022-10-31T08:22:59;10.23;;;6.55;;
46198;SDS011;31928;52.104;10.030;2022-10-31T08:25:27;7.75;;;6.00;;
46198;SDS011;31928;52.104;10.030;2022-10-31T08:28:02;8.25;;;6.10;;
46198;SDS011;31928;52.104;10.030;2022-10-31T08:30:29;6.85;;;6.18;;
46198;SDS011;31928;52.104;10.030;2022-10-31T08:33:04;10.75;;;7.13;;
46198;SDS011;31928;52.104;10.030;2022-10-31T08:35:31;10.60;;;5.22;;
46198;SDS011;31928;52.104;10.030;2022-10-31T08:37:58;6.93;;;5.78;;
46198;SDS011;31928;52.104;10.030;2022-10-31T08:40:26;9.82;;;6.00;;
46198;SDS011;31928;52.104;10.030;2022-10-31T08:45:25;8.63;;;5.90;;
46198;SDS011;31928;52.104;10.030;2022-10-31T08:47:51;7.03;;;5.65;;
46198;SDS011;31928;52.104;10.030;2022-10-31T08:50:18;8.18;;;6.07;;
46198;SDS011;31928;52.104;10.030;2022-10-31T08:52:45;6.47;;;5.00;;
46198;SDS011;31928;52.104;10.030;2022-10-31T08:55:30;7.78;;;5.32;;
46198;SDS011;31928;52.104;10.030;2022-10-31T08:57:57;8.23;;;6.60;;
46198;SDS011;31928;52.104;10.030;2022-10-31T09:00:24;8.88;;;6.50;;
46198;SDS011;31928;52.104;10.030;2022-10-31T09:02:55;8.02;;;7.32;;
46198;SDS011;31928;52.104;10.030;2022-10-31T09:05:24;8.75;;;7.00;;
46198;SDS011;31928;52.104;10.030;2022-10-31T09:07:52;10.80;;;6.25;;
46198;SDS011;31928;52.104;10.030;2022-10-31T09:10:22;7.93;;;5.55;;
46198;SDS011;31928;52.104;10.030;2022-10-31T09:13:00;7.13;;;5.55;;
46198;SDS011;31928;52.104;10.030;2022-10-31T09:15:30;9.30;;;6.53;;
46198;SDS011;31928;52.104;10.030;2022-10-31T09:17:56;9.85;;;7.43;;
46198;SDS011;31928;52.104;10.030;2022-10-31T09:20:23;8.23;;;7.28;;
46198;SDS011;31928;52.104;10.030;2022-10-31T09:22:57;9.68;;;6.88;;
46198;SDS011;31928;52.104;10.030;2022-10-31T09:25:24;10.10;;;7.82;;
46198;SDS011;31928;52.104;10.030;2022-10-31T09:27:54;8.05;;;7.25;;
46198;SDS011;31928;52.104;10.030;2022-10-31T09:30:22;8.95;;;6.70;;
46198;SDS011;31928;52.104;10.030;2022-10-31T09:32:54;9.38;;;6.68;;
46198;SDS011;31928;52.104;10.030;2022-10-31T09:35:21;8.68;;;7.32;;
46198;SDS011;31928;52.104;10.030;2022-10-31T09:38:24;8.90;;;6.70;;
46198;SDS011;31928;52.104;10.030;2022-10-31T09:40:57;6.82;;;6.13;;
46198;SDS011;31928;52.104;10.030;2022-10-31T09:43:43;8.52;;;6.28;;
46198;SDS011;31928;52.104;10.030;2022-10-31T09:46:26;9.70;;;7.10;;
46198;SDS011;31928;52.104;10.030;2022-10-31T09:51:30;7.25;;;6.47;;
46198;SDS011;31928;52.104;10.030;2022-10-31T09:54:09;9.90;;;6.55;;
46198;SDS011;31928;52.104;10.030;2022-10-31T09:56:40;7.28;;;6.53;;
46198;SDS011;31928;52.104;10.030;2022-10-31T09:59:13;9.70;;;6.75;;
46198;SDS011;31928;52.104;10.030;2022-10-31T10:02:30;7.75;;;6.80;;
46198;SDS011;31928;52.104;10.030;2022-10-31T10:04:44;9.65;;;7.30;;
46198;SDS011;31928;52.104;10.030;2022-10-31T10:09:59;7.93;;;7.13;;
46198;SDS011;31928;52.104;10.030;2022-10-31T10:18:32;9.70;;;6.85;;
46198;SDS011;31928;52.104;10.030;2022-10-31T10:27:16;9.27;;;7.30;;
46198;SDS011;31928;52.104;10.030;2022-10-31T10:29:57;8.82;;;6.93;;
46198;SDS011;31928;52.104;10.030;2022-10-31T10:32:36;7.72;;;6.47;;
46198;SDS011;31928;52.104;10.030;2022-10-31T10:35:19;7.43;;;6.35;;
46198;SDS011;31928;52.104;10.030;2022-10-31T10:37:58;10.68;;;6.90;;
46198;SDS011;31928;52.104;10.030;2022-10-31T10:40:30;7.65;;;6.18;;
46198;SDS011;31928;52.104;10.030;2022-10-31T10:43:08;10.90;;;6.75;;
46198;SDS011;31928;52.104;10.030;2022-10-31T10:49:02;8.35;;;6.13;;
46198;SDS011;31928;52.104;10.030;2022-10-31T10:55:13;6.68;;;5.43;;
46198;SDS011;31928;52.104;10.030;2022-10-31T10:58:01;7.80;;;6.10;;
46198;SDS011;31928;52.104;10.030;2022-10-31T11:00:31;9.55;;;5.35;;
46198;SDS011;31928;52.104;10.030;2022-10-31T11:03:02;7.72;;;5.72;;
46198;SDS011;31928;52.104;10.030;2022-10-31T11:08:08;8.70;;;5.88;;
46198;SDS011;31928;52.104;10.030;2022-10-31T11:10:35;8.10;;;5.53;;
46198;SDS011;31928;52.104;10.030;2022-10-31T11:13:06;7.88;;;5.90;;
46198;SDS011;31928;52.104;10.030;2022-10-31T11:15:54;7.88;;;5.30;;
46198;SDS011;31928;52.104;10.030;2022-10-31T11:18:27;8.80;;;5.38;;
46198;SDS011;31928;52.104;10.030;2022-10-31T11:20:57;8.50;;;5.93;;
46198;SDS011;31928;52.104;10.030;2022-10-31T11:23:27;6.43;;;5.63;;
46198;SDS011;31928;52.104;10.030;2022-10-31T11:28:33;8.23;;;5.55;;
46198;SDS011;31928;52.104;10.030;2022-10-31T11:31:11;8.57;;;4.93;;
46198;SDS011;31928;52.104;10.030;2022-10-31T11:33:44;6.70;;;5.10;;
46198;SDS011;31928;52.104;10.030;2022-10-31T11:36:32;6.65;;;4.70;;
46198;SDS011;31928;52.104;10.030;2022-10-31T11:39:03;7.45;;;4.25;;
46198;SDS011;31928;52.104;10.030;2022-10-31T11:41:32;5.45;;;4.50;;
46198;SDS011;31928;52.104;10.030;2022-10-31T11:44:18;5.30;;;4.22;;
46198;SDS011;31928;52.104;10.030;2022-10-31T11:46:48;5.38;;;4.15;;
46198;SDS011;31928;52.104;10.030;2022-10-31T11:49:18;4.50;;;4.10;;
46198;SDS011;31928;52.104;10.030;2022-10-31T11:51:52;5.07;;;3.83;;
46198;SDS011;31928;52.104;10.030;2022-10-31T11:54:23;5.20;;;3.90;;
46198;SDS011;31928;52.104;10.030;2022-10-31T11:56:55;8.52;;;4.68;;
46198;SDS011;31928;52.104;10.030;2022-10-31T11:59:26;5.00;;;3.50;;
46198;SDS011;31928;52.104;10.030;2022-10-31T12:01:55;4.53;;;3.35;;
46198;SDS011;31928;52.104;10.030;2022-10-31T12:07:11;4.18;;;3.25;;
46198;SDS011;31928;52.104;10.030;2022-10-31T12:09:37;3.83;;;3.45;;
46198;SDS011;31928;52.104;10.030;2022-10-31T12:17:16;4.90;;;3.55;;
46198;SDS011;31928;52.104;10.030;2022-10-31T12:19:50;5.72;;;4.00;;
46198;SDS011;31928;52.104;10.030;2022-10-31T12:22:51;4.25;;;3.85;;
46198;SDS011;31928;52.104;10.030;2022-10-31T12:25:40;4.25;;;3.22;;
46198;SDS011;31928;52.104;10.030;2022-10-31T12:33:56;5.60;;;4.13;;
46198;SDS011;31928;52.104;10.030;2022-10-31T12:36:57;5.18;;;3.55;;
46198;SDS011;31928;52.104;10.030;2022-10-31T12:39:58;4.00;;;3.60;;
46198;SDS011;31928;52.104;10.030;2022-10-31T12:42:41;4.05;;;3.20;;
46198;SDS011;31928;52.104;10.030;2022-10-31T12:56:16;3.75;;;3.33;;
46198;SDS011;31928;52.104;10.030;2022-10-31T12:58:52;4.57;;;3.45;;
46198;SDS011;31928;52.104;10.030;2022-10-31T13:03:58;4.05;;;3.08;;
46198;SDS011;31928;52.104;10.030;2022-10-31T13:06:33;3.63;;;3.05;;
46198;SDS011;31928;52.104;10.030;2022-10-31T13:09:10;3.88;;;3.15;;
46198;SDS011;31928;52.104;10.030;2022-10-31T13:11:43;4.70;;;3.00;;
46198;SDS011;31928;52.104;10.030;2022-10-31T13:14:38;4.35;;;2.90;;
46198;SDS011;31928;52.104;10.030;2022-10-31T13:17:10;3.67;;;2.83;;
46198;SDS011;31928;52.104;10.030;2022-10-31T13:19:46;3.00;;;2.42;;
46198;SDS011;31928;52.104;10.030;2022-10-31T13:22:17;3.22;;;2.80;;
46198;SDS011;31928;52.104;10.030;2022-10-31T13:24:58;4.80;;;3.65;;
46198;SDS011;31928;52.104;10.030;2022-10-31T13:27:30;5.40;;;3.40;;
46198;SDS011;31928;52.104;10.030;2022-10-31T13:30:18;4.07;;;3.22;;
46198;SDS011;31928;52.104;10.030;2022-10-31T13:32:51;3.20;;;2.67;;
46198;SDS011;31928;52.104;10.030;2022-10-31T13:38:30;3.00;;;2.70;;
46198;SDS011;31928;52.104;10.030;2022-10-31T13:43:59;5.78;;;3.70;;
46198;SDS011;31928;52.104;10.030;2022-10-31T13:48:58;4.47;;;3.00;;
46198;SDS011;31928;52.104;10.030;2022-10-31T13:51:28;5.03;;;3.97;;
46198;SDS011;31928;52.104;10.030;2022-10-31T13:56:30;4.20;;;3.65;;
46198;SDS011;31928;52.104;10.030;2022-10-31T14:01:35;7.03;;;3.88;;
46198;SDS011;31928;52.104;10.030;2022-10-31T14:04:06;4.35;;;3.75;;
46198;SDS011;31928;52.104;10.030;2022-10-31T14:09:53;5.85;;;3.92;;
46198;SDS011;31928;52.104;10.030;2022-10-31T14:12:38;3.97;;;3.55;;
46198;SDS011;31928;52.104;10.030;2022-10-31T14:17:57;8.32;;;5.28;;
46198;SDS011;31928;52.104;10.030;2022-10-31T14:23:34;6.95;;;4.40;;
46198;SDS011;31928;52.104;10.030;2022-10-31T14:28:34;4.97;;;4.57;;
46198;SDS011;31928;52.104;10.030;2022-10-31T14:31:01;6.88;;;5.40;;
46198;SDS011;31928;52.104;10.030;2022-10-31T14:33:28;6.20;;;4.45;;
46198;SDS011;31928;52.104;10.030;2022-10-31T14:36:35;5.20;;;4.53;;
46198;SDS011;31928;52.104;10.030;2022-10-31T14:39:18;4.78;;;4.20;;
46198;SDS011;31928;52.104;10.030;2022-10-31T14:53:02;3.95;;;3.55;;
46198;SDS011;31928;52.104;10.030;2022-10-31T14:55:31;6.05;;;4.57;;
46198;SDS011;31928;52.104;10.030;2022-10-31T14:58:02;4.32;;;3.92;;
46198;SDS011;31928;52.104;10.030;2022-10-31T15:00:32;4.35;;;3.95;;
46198;SDS011;31928;52.104;10.030;2022-10-31T15:03:12;4.25;;;3.85;;
46198;SDS011;31928;52.104;10.030;2022-10-31T15:05:51;4.88;;;4.22;;
46198;SDS011;31928;52.104;10.030;2022-10-31T15:10:59;4.40;;;4.00;;
46198;SDS011;31928;52.104;10.030;2022-10-31T15:13:29;5.15;;;3.95;;
46198;SDS011;31928;52.104;10.030;2022-10-31T15:15:56;4.57;;;4.10;;
46198;SDS011;31928;52.104;10.030;2022-10-31T15:18:26;4.20;;;3.80;;
46198;SDS011;31928;52.104;10.030;2022-10-31T15:20:55;3.97;;;3.60;;
46198;SDS011;31928;52.104;10.030;2022-10-31T15:23:26;5.47;;;3.67;;
46198;SDS011;31928;52.104;10.030;2022-10-31T15:25:58;5.18;;;4.25;;
46198;SDS011;31928;52.104;10.030;2022-10-31T15:28:26;5.00;;;4.18;;
46198;SDS011;31928;52.104;10.030;2022-10-31T15:30:54;4.18;;;3.70;;
46198;SDS011;31928;52.104;10.030;2022-10-31T15:33:24;4.40;;;3.40;;
46198;SDS011;31928;52.104;10.030;2022-10-31T15:36:00;4.85;;;3.30;;
46198;SDS011;31928;52.104;10.030;2022-10-31T15:38:28;5.93;;;4.55;;
46198;SDS011;31928;52.104;10.030;2022-10-31T15:41:02;4.97;;;4.32;;
46198;SDS011;31928;52.104;10.030;2022-10-31T15:43:35;6.50;;;4.38;;
46198;SDS011;31928;52.104;10.030;2022-10-31T15:46:06;5.50;;;4.28;;
46198;SDS011;31928;52.104;10.030;2022-10-31T15:48:34;4.15;;;3.80;;
46198;SDS011;31928;52.104;10.030;2022-10-31T15:51:01;4.45;;;4.05;;
46198;SDS011;31928;52.104;10.030;2022-10-31T15:53:34;4.22;;;3.83;;
46198;SDS011;31928;52.104;10.030;2022-10-31T15:56:05;4.80;;;4.30;;
46198;SDS011;31928;52.104;10.030;2022-10-31T15:58:39;4.88;;;3.78;;
46198;SDS011;31928;52.104;10.030;2022-10-31T16:01:18;5.80;;;4.15;;
46198;SDS011;31928;52.104;10.030;2022-10-31T16:03:56;5.40;;;4.25;;
46198;SDS011;31928;52.104;10.030;2022-10-31T16:06:25;4.93;;;3.90;;
46198;SDS011;31928;52.104;10.030;2022-10-31T16:08:52;4.80;;;3.90;;
46198;SDS011;31928;52.104;10.030;2022-10-31T16:11:23;4.80;;;4.40;;
46198;SDS011;31928;52.104;10.030;2022-10-31T16:16:31;5.88;;;4.82;;
46198;SDS011;31928;52.104;10.030;2022-10-31T16:19:02;8.13;;;5.43;;
46198;SDS011;31928;52.104;10.030;2022-10-31T16:21:32;4.97;;;4.35;;
46198;SDS011;31928;52.104;10.030;2022-10-31T16:24:20;6.78;;;6.10;;
46198;SDS011;31928;52.104;10.030;2022-10-31T16:26:54;6.15;;;5.32;;
46198;SDS011;31928;52.104;10.030;2022-10-31T16:29:49;8.40;;;5.82;;
46198;SDS011;31928;52.104;10.030;2022-10-31T16:32:25;7.50;;;6.15;;
46198;SDS011;31928;52.104;10.030;2022-10-31T16:35:23;7.63;;;5.47;;
46198;SDS011;31928;52.104;10.030;2022-10-31T16:37:51;7.57;;;6.18;;
46198;SDS011;31928;52.104;10.030;2022-10-31T16:40:17;10.52;;;8.65;;
46198;SDS011;31928;52.104;10.030;2022-10-31T16:42:44;8.90;;;7.97;;
46198;SDS011;31928;52.104;10.030;2022-10-31T16:45:15;9.30;;;7.28;;
46198;SDS011;31928;52.104;10.030;2022-10-31T16:47:44;9.57;;;8.57;;
46198;SDS011;31928;52.104;10.030;2022-10-31T16:50:16;8.75;;;7.45;;
46198;SDS011;31928;52.104;10.030;2022-10-31T16:52:46;9.57;;;7.07;;
46198;SDS011;31928;52.104;10.030;2022-10-31T16:55:33;10.43;;;7.78;;
46198;SDS011;31928;52.104;10.030;2022-10-31T16:58:01;9.75;;;8.48;;
46198;SDS011;31928;52.104;10.030;2022-10-31T17:00:28;10.02;;;8.80;;
46198;SDS011;31928;52.104;10.030;2022-10-31T17:02:55;10.25;;;9.02;;
46198;SDS011;31928;52.104;10.030;2022-10-31T17:05:23;14.65;;;10.25;;
46198;SDS011;31928;52.104;10.030;2022-10-31T17:07:56;12.25;;;8.95;;
46198;SDS011;31928;52.104;10.030;2022-10-31T17:10:23;13.48;;;9.55;;
46198;SDS011;31928;52.104;10.030;2022-10-31T17:12:51;12.40;;;9.55;;
46198;SDS011;31928;52.104;10.030;2022-10-31T17:15:22;13.88;;;11.38;;
46198;SDS011;31928;52.104;10.030;2022-10-31T17:17:50;11.95;;;10.55;;
46198;SDS011;31928;52.104;10.030;2022-10-31T17:22:46;13.00;;;11.60;;
46198;SDS011;31928;52.104;10.030;2022-10-31T17:25:16;18.27;;;12.73;;
46198;SDS011;31928;52.104;10.030;2022-10-31T17:27:45;18.95;;;13.80;;
46198;SDS011;31928;52.104;10.030;2022-10-31T17:30:13;16.45;;;13.63;;
46198;SDS011;31928;52.104;10.030;2022-10-31T17:32:41;17.45;;;13.82;;
46198;SDS011;31928;52.104;10.030;2022-10-31T17:35:08;19.48;;;14.68;;
46198;SDS011;31928;52.104;10.030;2022-10-31T17:37:35;23.33;;;14.73;;
46198;SDS011;31928;52.104;10.030;2022-10-31T17:40:02;17.77;;;14.98;;
46198;SDS011;31928;52.104;10.030;2022-10-31T17:42:29;21.35;;;14.60;;
46198;SDS011;31928;52.104;10.030;2022-10-31T17:44:55;18.48;;;14.82;;
46198;SDS011;31928;52.104;10.030;2022-10-31T17:49:48;19.02;;;12.77;;
46198;SDS011;31928;52.104;10.030;2022-10-31T17:52:15;19.80;;;14.10;;
46198;SDS011;31928;52.104;10.030;2022-10-31T17:57:08;17.95;;;14.43;;
46198;SDS011;31928;52.104;10.030;2022-10-31T17:59:34;23.45;;;16.80;;
46198;SDS011;31928;52.104;10.030;2022-10-31T18:02:01;25.48;;;21.25;;
46198;SDS011;31928;52.104;10.030;2022-10-31T18:04:34;25.63;;;19.52;;
46198;SDS011;31928;52.104;10.030;2022-10-31T18:07:00;21.83;;;16.67;;
46198;SDS011;31928;52.104;10.030;2022-10-31T18:09:27;23.17;;;18.92;;
46198;SDS011;31928;52.104;10.030;2022-10-31T18:11:54;26.75;;;20.77;;
46198;SDS011;31928;52.104;10.030;2022-10-31T18:16:47;22.88;;;17.90;;
46198;SDS011;31928;52.104;10.030;2022-10-31T18:21:41;21.27;;;14.55;;
46198;SDS011;31928;52.104;10.030;2022-10-31T18:24:08;23.30;;;16.33;;